Time;durP1;ratioP1;P1;durP2;ratioP2;P2;SDS_P1;SDS_P2;PMS_P1;PMS_P2;Temp;Humidity;BMP_temperature;BMP_pressure;BME280_temperature;BME280_humidity;BME280_pressure;Samples;Min_cycle;Max_cycle;Signal;HPM_P1;HPM_P2
2021/03/08 00:01:43;;;;;;;3.08;2.08;;;;;;;25.55;27.18;96821.03;4994887;28;20418;-31
2021/03/08 00:04:08;;;;;;;4.07;2.63;;;;;;;25.55;27.29;96820.19;5002967;28;20617;-32
2021/03/08 00:06:34;;;;;;;3.75;2.50;;;;;;;25.54;27.08;96824.56;5003697;28;20041;-33
2021/03/08 00:08:59;;;;;;;3.60;2.40;;;;;;;25.52;27.12;96808.06;5001408;28;20037;-35
2021/03/08 00:11:24;;;;;;;4.20;2.67;;;;;;;25.55;27.34;96825.44;4997028;28;20029;-32
2021/03/08 00:13:50;;;;;;;3.00;2.20;;;;;;;25.54;27.23;96823.72;5004017;28;20034;-32
2021/03/08 00:16:15;;;;;;;6.15;2.33;;;;;;;25.53;27.00;96820.25;5000900;28;20092;-32
2021/03/08 00:18:40;;;;;;;4.43;2.45;;;;;;;25.54;27.10;96818.47;4996333;28;20025;-30
2021/03/08 00:21:06;;;;;;;4.97;2.75;;;;;;;25.53;27.09;96820.25;4998205;28;20030;-34
2021/03/08 00:23:31;;;;;;;3.63;2.47;;;;;;;25.52;27.01;96815.91;5001183;28;20100;-33
2021/03/08 00:25:57;;;;;;;3.33;2.20;;;;;;;25.52;26.97;96815.91;5001782;28;20076;-33
2021/03/08 00:28:22;;;;;;;3.67;2.47;;;;;;;25.52;27.03;96820.34;4998519;28;20036;-33
2021/03/08 00:30:47;;;;;;;4.10;2.75;;;;;;;25.52;26.99;96821.16;4998974;28;20038;-31
2021/03/08 00:33:13;;;;;;;2.55;2.17;;;;;;;25.51;27.25;96819.47;5000815;28;20060;-32
2021/03/08 00:35:38;;;;;;;4.35;2.40;;;;;;;25.52;27.09;96821.16;4998903;28;20030;-34
2021/03/08 00:38:04;;;;;;;5.80;2.50;;;;;;;25.51;27.05;96824.72;4971343;28;20042;-33
2021/03/08 00:40:29;;;;;;;4.43;2.45;;;;;;;25.51;27.05;96818.66;4996682;28;20099;-34
2021/03/08 00:42:54;;;;;;;5.47;2.13;;;;;;;25.50;27.06;96823.03;5002898;28;20038;-33
2021/03/08 00:45:21;;;;;;;3.22;2.40;;;;;;;25.50;27.00;96828.28;5000188;28;20037;-31
2021/03/08 00:47:46;;;;;;;3.38;2.15;;;;;;;25.50;27.03;96823.03;4982223;28;20033;-33
2021/03/08 00:50:14;;;;;;;3.58;2.30;;;;;;;25.49;26.93;96823.97;5001386;28;20029;-33
2021/03/08 00:52:40;;;;;;;3.45;2.40;;;;;;;25.48;26.83;96824.91;4985318;28;20633;-33
2021/03/08 00:55:06;;;;;;;3.05;2.30;;;;;;;25.48;27.08;96827.53;4996327;28;20037;-37
2021/03/08 00:57:32;;;;;;;3.95;2.55;;;;;;;25.48;26.81;96824.91;5003037;28;20029;-31
2021/03/08 00:59:57;;;;;;;3.40;2.40;;;;;;;25.49;26.87;96817.88;5000429;28;20057;-33
2021/03/08 01:02:23;;;;;;;3.05;2.20;;;;;;;25.48;26.84;96824.03;4998110;28;20514;-33
2021/03/08 01:04:48;;;;;;;3.42;2.35;;;;;;;25.48;26.87;96810.94;5003827;28;20077;-33
2021/03/08 01:07:14;;;;;;;3.05;2.17;;;;;;;25.48;26.98;96809.16;5000212;28;20164;-32
2021/03/08 01:09:39;;;;;;;3.10;2.15;;;;;;;25.47;27.04;96806.63;4999080;28;20034;-32
2021/03/08 01:12:05;;;;;;;3.92;2.38;;;;;;;25.47;26.97;96796.94;5001936;28;20038;-32
2021/03/08 01:14:31;;;;;;;2.80;2.05;;;;;;;25.47;26.93;96801.38;4998171;28;20033;-32
2021/03/08 01:16:56;;;;;;;2.47;2.05;;;;;;;25.47;26.80;96812.69;5002145;28;20045;-32
2021/03/08 01:19:22;;;;;;;5.63;2.50;;;;;;;25.46;26.86;96805.75;4991653;28;20021;-36
2021/03/08 01:21:47;;;;;;;3.53;2.20;;;;;;;25.46;26.80;96805.75;4996799;28;20092;-32
2021/03/08 01:24:13;;;;;;;2.55;2.05;;;;;;;25.45;26.97;96796.19;5001136;28;20182;-33
2021/03/08 01:26:38;;;;;;;3.60;2.20;;;;;;;25.44;26.70;96791.88;5003720;28;20508;-33
2021/03/08 01:29:04;;;;;;;3.70;2.45;;;;;;;25.44;27.03;96795.34;5005667;28;20029;-34
2021/03/08 01:31:29;;;;;;;3.00;2.40;;;;;;;25.43;26.91;96792.78;4986620;28;20541;-32
2021/03/08 01:33:54;;;;;;;4.28;2.13;;;;;;;25.44;26.85;96784.00;4987278;28;20030;-32
2021/03/08 01:36:20;;;;;;;4.93;2.47;;;;;;;25.43;26.98;96784.91;5000282;28;20589;-33
2021/03/08 01:38:45;;;;;;;2.95;2.15;;;;;;;25.43;26.77;96779.66;4999587;28;20030;-34
2021/03/08 01:41:11;;;;;;;3.90;2.30;;;;;;;25.43;26.97;96774.41;5000610;28;20080;-33
2021/03/08 01:43:36;;;;;;;2.90;2.20;;;;;;;25.43;26.77;96774.41;5009254;28;20490;-32
2021/03/08 01:46:02;;;;;;;4.35;2.50;;;;;;;25.43;26.75;96769.19;5009828;28;20045;-32
2021/03/08 01:48:28;;;;;;;4.53;2.40;;;;;;;25.42;26.95;96770.13;5001203;28;20045;-35
2021/03/08 01:50:53;;;;;;;3.17;2.45;;;;;;;25.41;26.75;96773.66;4997451;28;20041;-33
2021/03/08 01:53:19;;;;;;;3.42;2.20;;;;;;;25.40;26.92;96769.34;4984282;28;20030;-33
2021/03/08 01:55:45;;;;;;;2.20;1.75;;;;;;;25.39;26.87;96768.50;4976686;28;20022;-32
2021/03/08 01:58:10;;;;;;;2.85;2.20;;;;;;;25.40;26.73;96764.09;5003613;28;20173;-32
2021/03/08 02:00:36;;;;;;;3.33;2.22;;;;;;;25.39;26.79;96768.50;4998114;28;20111;-40
2021/03/08 02:03:01;;;;;;;2.70;2.30;;;;;;;25.39;26.96;96767.63;5001973;28;20025;-32
2021/03/08 02:05:32;;;;;;;3.90;2.35;;;;;;;25.39;26.79;96765.00;5003617;28;20035;-33
2021/03/08 02:07:57;;;;;;;3.00;2.25;;;;;;;25.39;26.89;96759.75;5003748;28;20038;-32
2021/03/08 02:10:23;;;;;;;2.80;2.17;;;;;;;25.38;26.99;96758.94;4998647;28;20050;-32
2021/03/08 02:12:48;;;;;;;4.97;2.25;;;;;;;25.38;26.90;96761.56;5005959;28;20034;-33
2021/03/08 02:15:58;;;;;;;3.25;2.10;;;;;;;25.37;26.97;96765.13;4997756;28;20049;-32
2021/03/08 02:18:40;;;;;;;3.55;1.95;;;;;;;25.37;26.96;96765.13;4949823;28;20034;-32
2021/03/08 02:21:46;;;;;;;3.03;2.25;;;;;;;25.36;26.96;96762.56;4995777;28;20137;-34
2021/03/08 02:24:26;;;;;;;2.13;1.90;;;;;;;25.36;27.02;96767.81;4989777;28;20421;-32
2021/03/08 02:26:59;;;;;;;2.28;1.95;;;;;;;25.35;26.99;96763.50;5002887;28;20022;-31
2021/03/08 02:29:54;;;;;;;5.30;2.05;;;;;;;25.34;26.90;96764.41;4996612;28;20112;-33
2021/03/08 02:32:32;;;;;;;3.45;1.80;;;;;;;25.34;27.00;96764.41;4988232;28;20258;-35
2021/03/08 02:35:06;;;;;;;2.25;1.80;;;;;;;25.34;27.03;96773.13;4986844;28;20064;-32
2021/03/08 02:37:35;;;;;;;3.15;2.30;;;;;;;25.34;26.79;96774.91;4980581;28;20132;-34
2021/03/08 02:40:21;;;;;;;2.72;2.40;;;;;;;25.30;26.99;96764.59;4981473;28;20585;-32
2021/03/08 02:42:50;;;;;;;3.75;2.00;;;;;;;25.31;27.11;96770.66;4981036;28;20021;-33
2021/03/08 02:45:15;;;;;;;3.13;2.10;;;;;;;25.29;26.81;96772.53;4974574;28;20031;-34
2021/03/08 02:47:48;;;;;;;2.47;1.80;;;;;;;25.30;26.71;96769.84;4962728;28;20101;-30
2021/03/08 02:50:13;;;;;;;2.70;2.38;;;;;;;25.29;27.03;96764.66;4983823;28;20430;-31
2021/03/08 02:52:41;;;;;;;3.60;2.33;;;;;;;25.29;26.72;96764.66;4987240;28;20030;-32
2021/03/08 02:55:06;;;;;;;4.35;1.95;;;;;;;25.27;26.91;96756.88;4979506;28;20033;-32
2021/03/08 02:57:39;;;;;;;2.10;1.70;;;;;;;25.27;27.04;96759.50;4963924;28;20037;-36
2021/03/08 03:00:09;;;;;;;2.20;1.88;;;;;;;25.27;26.94;96754.25;4988076;28;20026;-35
2021/03/08 03:02:35;;;;;;;2.88;2.10;;;;;;;25.29;26.73;96756.78;5002093;28;20026;-35
2021/03/08 03:05:05;;;;;;;2.55;2.03;;;;;;;25.28;26.86;96761.19;4969880;28;20109;-33
2021/03/08 03:07:31;;;;;;;2.25;1.92;;;;;;;25.28;27.03;96755.94;4985935;28;20026;-32
2021/03/08 03:09:57;;;;;;;3.42;2.08;;;;;;;25.27;26.92;96759.50;4972825;28;20430;-34
2021/03/08 03:12:23;;;;;;;4.45;2.25;;;;;;;25.26;26.87;96757.81;4972307;28;20037;-32
2021/03/08 03:14:49;;;;;;;2.67;1.90;;;;;;;25.26;27.04;96754.31;5001537;28;20042;-32
2021/03/08 03:17:15;;;;;;;2.42;1.90;;;;;;;25.25;26.82;96753.47;4966640;28;20038;-32
2021/03/08 03:19:42;;;;;;;3.17;2.00;;;;;;;25.23;27.00;96749.22;4982283;28;20044;-32
2021/03/08 03:22:08;;;;;;;3.03;2.13;;;;;;;25.25;26.82;96758.72;4968752;28;20081;-30
2021/03/08 03:24:33;;;;;;;2.70;1.90;;;;;;;25.25;26.70;96765.75;5000102;28;20516;-32
2021/03/08 03:26:59;;;;;;;3.13;1.98;;;;;;;25.24;27.02;96764.88;4985845;28;20449;-32
2021/03/08 03:29:25;;;;;;;2.90;2.00;;;;;;;25.23;26.95;96763.19;4999506;28;20034;-32
2021/03/08 03:31:50;;;;;;;2.45;1.90;;;;;;;25.26;26.87;96762.19;4969910;28;20301;-33
2021/03/08 03:34:17;;;;;;;2.08;1.80;;;;;;;25.25;26.80;96758.72;4957954;28;20113;-33
2021/03/08 03:36:43;;;;;;;1.85;1.60;;;;;;;25.26;26.75;96762.19;4968520;28;20030;-32
2021/03/08 03:39:09;;;;;;;3.35;2.08;;;;;;;25.24;26.98;96770.13;4966123;28;20514;-32
2021/03/08 03:41:35;;;;;;;2.40;1.80;;;;;;;25.24;26.98;96770.13;4977856;28;20129;-33
2021/03/08 03:44:01;;;;;;;3.10;1.80;;;;;;;25.23;26.95;96773.69;4980046;28;20037;-32
2021/03/08 03:46:27;;;;;;;2.65;1.90;;;;;;;25.24;26.92;96779.78;4989294;28;20030;-34
2021/03/08 03:48:52;;;;;;;2.15;1.70;;;;;;;25.22;26.93;96777.25;4980304;28;20110;-30
2021/03/08 03:51:18;;;;;;;6.22;1.90;;;;;;;25.22;26.92;96777.25;4981657;28;20015;-32
2021/03/08 03:53:44;;;;;;;2.33;1.90;;;;;;;25.21;26.93;96783.44;4982250;28;20034;-40
2021/03/08 03:56:09;;;;;;;2.08;1.67;;;;;;;25.21;26.70;96775.56;4980285;28;20665;-31
2021/03/08 03:58:39;;;;;;;2.22;1.73;;;;;;;25.20;26.87;96779.06;4983648;28;20210;-33
2021/03/08 04:01:06;;;;;;;6.95;1.90;;;;;;;25.20;26.74;96779.06;4986365;28;20034;-34
2021/03/08 04:03:59;;;;;;;2.25;1.77;;;;;;;25.20;26.73;96788.75;4983819;28;20729;-31
2021/03/08 04:06:37;;;;;;;2.45;1.95;;;;;;;25.20;26.87;96791.38;4959409;28;20157;-32
2021/03/08 04:09:03;;;;;;;3.05;1.80;;;;;;;25.19;26.81;96798.38;4964092;28;20030;-32
2021/03/08 04:11:33;;;;;;;1.85;1.65;;;;;;;25.19;27.08;96795.75;4976239;28;20480;-32
2021/03/08 04:14:00;;;;;;;2.22;1.52;;;;;;;25.18;26.88;96801.94;4970238;28;20034;-33
2021/03/08 04:16:25;;;;;;;2.97;1.80;;;;;;;25.19;26.73;96798.38;4945068;28;20419;-31
2021/03/08 04:18:51;;;;;;;1.98;1.77;;;;;;;25.19;26.75;96803.63;4978987;28;20062;-32
2021/03/08 04:21:16;;;;;;;2.13;1.92;;;;;;;25.19;26.84;96806.25;4946270;28;20108;-32
2021/03/08 04:23:42;;;;;;;2.25;1.60;;;;;;;25.18;26.81;96801.94;4982006;28;20116;-32
2021/03/08 04:26:07;;;;;;;1.98;1.77;;;;;;;25.17;26.79;96806.31;4976797;28;20034;-33
2021/03/08 04:28:32;;;;;;;2.35;1.60;;;;;;;25.18;26.75;96807.16;4963254;28;20026;-33
2021/03/08 04:30:58;;;;;;;3.08;1.80;;;;;;;25.18;26.90;96807.16;4967667;28;20105;-32
2021/03/08 04:33:23;;;;;;;2.20;1.75;;;;;;;25.17;26.93;96805.47;4972155;28;20108;-32
2021/03/08 04:35:49;;;;;;;2.50;1.60;;;;;;;25.16;26.98;96816.88;4944140;28;20041;-32
2021/03/08 04:38:14;;;;;;;2.25;1.60;;;;;;;25.16;26.94;96809.00;4946341;28;20045;-34
2021/03/08 04:40:39;;;;;;;3.33;1.75;;;;;;;25.13;26.91;96811.81;4965842;28;20434;-33
2021/03/08 04:43:05;;;;;;;2.15;1.27;;;;;;;25.15;26.98;96817.81;4959586;28;20022;-33
2021/03/08 04:45:31;;;;;;;2.30;1.55;;;;;;;25.14;27.00;96816.94;4965208;28;20042;-32
2021/03/08 04:47:56;;;;;;;2.15;1.80;;;;;;;25.15;26.96;96828.28;4976564;28;20275;-31
2021/03/08 04:50:22;;;;;;;2.38;1.50;;;;;;;25.14;26.70;96818.75;4979901;28;20034;-31
2021/03/08 04:52:49;;;;;;;1.98;1.65;;;;;;;25.14;26.99;96823.97;4979903;28;20025;-35
2021/03/08 04:55:14;;;;;;;3.35;1.80;;;;;;;25.14;27.01;96831.84;5004053;28;20506;-32
2021/03/08 04:57:40;;;;;;;2.72;1.80;;;;;;;25.12;26.81;96833.69;4988600;28;20084;-33
2021/03/08 05:00:06;;;;;;;1.85;1.50;;;;;;;25.12;26.94;96831.06;4977348;28;20040;-32
2021/03/08 05:02:32;;;;;;;1.92;1.45;;;;;;;25.11;26.91;96832.00;4997450;28;20030;-32
2021/03/08 05:04:57;;;;;;;2.42;1.75;;;;;;;25.10;26.93;96827.69;4997373;28;20065;-34
2021/03/08 05:07:23;;;;;;;2.30;1.58;;;;;;;25.11;26.88;96837.22;4989598;28;20041;-31
2021/03/08 05:09:49;;;;;;;4.20;1.40;;;;;;;25.10;26.93;96830.31;4983809;28;20042;-33
2021/03/08 05:12:14;;;;;;;2.70;1.67;;;;;;;25.09;27.03;96821.56;4971409;28;20031;-32
2021/03/08 05:14:40;;;;;;;3.88;1.90;;;;;;;25.09;26.93;96828.63;4957127;28;20048;-32
2021/03/08 05:17:06;;;;;;;5.63;1.55;;;;;;;25.08;26.88;96832.13;4975796;28;20236;-32
2021/03/08 05:19:34;;;;;;;2.20;1.52;;;;;;;25.08;26.94;96832.13;4981751;28;20285;-34
2021/03/08 05:22:00;;;;;;;2.35;1.50;;;;;;;25.08;27.04;96837.38;4960962;28;20037;-32
2021/03/08 05:24:25;;;;;;;1.73;1.20;;;;;;;25.08;26.92;96842.63;4973453;28;20034;-31
2021/03/08 05:26:51;;;;;;;3.58;1.70;;;;;;;25.07;27.04;96836.56;4943813;28;20172;-31
2021/03/08 05:29:16;;;;;;;2.33;1.70;;;;;;;25.07;26.81;96843.56;4968593;28;20037;-32
2021/03/08 05:31:42;;;;;;;6.68;3.60;;;;;;;25.05;25.93;96843.63;4972965;28;20117;-32
2021/03/08 05:34:07;;;;;;;6.28;3.40;;;;;;;25.04;25.45;96844.56;4954529;28;20615;-32
2021/03/08 05:36:34;;;;;;;4.72;1.90;;;;;;;25.02;26.11;96844.63;4949207;28;20089;-33
2021/03/08 05:39:00;;;;;;;4.07;1.92;;;;;;;25.01;26.58;96849.94;4975593;28;20038;-37
2021/03/08 05:41:33;;;;;;;5.05;1.90;;;;;;;25.00;26.75;96849.13;4960205;28;20018;-31
2021/03/08 05:44:06;;;;;;;7.03;2.10;;;;;;;25.00;26.80;96840.38;4965405;28;20026;-31
2021/03/08 05:47:07;;;;;;;6.63;1.90;;;;;;;24.98;26.56;96848.31;4970423;28;20046;-33
2021/03/08 05:49:53;;;;;;;2.58;1.65;;;;;;;24.97;26.86;96846.63;4969303;28;20113;-31
2021/03/08 05:52:56;;;;;;;3.88;1.67;;;;;;;24.98;26.87;96847.50;4972535;28;20034;-33
2021/03/08 05:55:35;;;;;;;2.90;1.85;;;;;;;24.97;26.93;96851.03;4973191;28;20126;-30
2021/03/08 05:58:18;;;;;;;4.40;1.80;;;;;;;24.96;26.74;96854.56;4975902;28;20263;-32
2021/03/08 06:01:03;;;;;;;6.88;2.00;;;;;;;24.96;26.83;96858.06;4978447;28;20049;-32
2021/03/08 06:03:59;;;;;;;2.38;1.60;;;;;;;24.96;26.87;96860.66;4992170;28;20247;-32
2021/03/08 06:06:47;;;;;;;1.88;1.45;;;;;;;24.97;26.70;96861.53;4972110;28;21586;-32
2021/03/08 06:09:22;;;;;;;2.55;1.50;;;;;;;24.97;26.92;96864.16;4982449;28;20015;-32
2021/03/08 06:12:07;;;;;;;3.25;2.00;;;;;;;24.96;26.70;96860.66;4981581;28;20060;-35
2021/03/08 06:14:35;;;;;;;5.18;1.50;;;;;;;24.97;26.85;96862.34;4968214;28;20026;-32
2021/03/08 06:17:00;;;;;;;3.45;1.73;;;;;;;24.98;26.87;96868.47;4981847;28;20111;-33
2021/03/08 06:19:26;;;;;;;2.90;1.67;;;;;;;24.97;26.79;96866.78;4996317;28;20030;-32
2021/03/08 06:21:51;;;;;;;4.03;1.60;;;;;;;24.99;27.01;96878.03;4961036;28;20026;-31
2021/03/08 06:24:16;;;;;;;3.28;1.67;;;;;;;24.97;26.74;96878.09;5009138;28;20037;-31
2021/03/08 06:26:42;;;;;;;1.77;1.65;;;;;;;24.98;26.80;96879.78;4984445;28;20030;-33
2021/03/08 06:29:08;;;;;;;1.67;1.40;;;;;;;24.99;26.87;96886.75;4963648;28;20034;-33
2021/03/08 06:31:35;;;;;;;3.08;1.80;;;;;;;24.98;26.73;96879.78;4973408;28;20057;-33
2021/03/08 06:34:01;;;;;;;2.08;1.63;;;;;;;25.00;26.92;96877.09;4979660;28;20026;-32
2021/03/08 06:36:26;;;;;;;1.98;1.40;;;;;;;25.00;26.90;96879.72;4976069;28;20140;-31
2021/03/08 06:38:52;;;;;;;3.08;1.60;;;;;;;25.00;26.65;96879.72;4983542;28;20026;-32
2021/03/08 06:41:17;;;;;;;2.92;1.55;;;;;;;24.99;26.68;96875.41;4979027;28;20471;-34
2021/03/08 06:43:42;;;;;;;4.10;2.08;;;;;;;24.98;26.71;96877.16;4994671;28;20053;-32
2021/03/08 06:46:08;;;;;;;1.95;1.55;;;;;;;24.98;26.68;96873.72;5005155;28;20046;-34
2021/03/08 06:48:34;;;;;;;2.78;1.55;;;;;;;24.98;26.87;96874.53;4987502;28;20615;-34
2021/03/08 06:51:15;;;;;;;2.17;1.48;;;;;;;24.98;26.98;96879.78;4980681;28;20423;-33
2021/03/08 06:53:41;;;;;;;2.13;1.70;;;;;;;24.98;26.71;96885.03;4977630;28;20045;-34
2021/03/08 06:56:22;;;;;;;2.28;1.70;;;;;;;24.99;26.97;96886.75;4980861;28;20030;-34
2021/03/08 06:59:13;;;;;;;1.80;1.50;;;;;;;25.00;26.73;96888.44;4997395;28;20376;-33
2021/03/08 07:01:42;;;;;;;1.67;1.27;;;;;;;25.00;26.75;96888.44;4958722;28;20054;-31
2021/03/08 07:04:19;;;;;;;2.78;1.60;;;;;;;24.99;26.76;96891.13;4939699;28;20113;-34
2021/03/08 07:07:06;;;;;;;2.83;1.77;;;;;;;25.01;26.88;96900.63;4936410;28;20030;-34
2021/03/08 07:09:33;;;;;;;1.92;1.48;;;;;;;25.00;26.74;96904.16;4968540;28;20491;-33
2021/03/08 07:12:11;;;;;;;2.35;1.42;;;;;;;25.00;26.67;96904.16;4972322;28;20414;-32
2021/03/08 07:14:37;;;;;;;1.77;1.42;;;;;;;25.01;26.95;96911.09;4977642;28;22635;-33
2021/03/08 07:17:26;;;;;;;3.63;1.60;;;;;;;25.02;26.84;96912.78;4974198;28;20042;-33
2021/03/08 07:19:55;;;;;;;2.85;1.65;;;;;;;25.03;26.83;96906.66;4990950;28;20030;-32
2021/03/08 07:22:47;;;;;;;3.20;1.70;;;;;;;25.02;26.71;96907.56;4976887;28;20018;-32
2021/03/08 07:25:21;;;;;;;;;;;;;;;25.03;26.71;96909.28;4979160;28;20540;-33
2021/03/08 07:27:49;;;;;;;3.22;1.55;;;;;;;25.03;27.01;96913.66;4978770;28;19914;-31
2021/03/08 07:30:15;;;;;;;2.78;1.60;;;;;;;25.02;26.94;96918.03;4958700;28;20116;-32
2021/03/08 07:32:50;;;;;;;1.85;1.40;;;;;;;25.03;26.84;96918.91;4979992;28;20382;-32
2021/03/08 07:35:15;;;;;;;2.40;1.58;;;;;;;25.04;26.75;96916.22;4983553;28;20026;-31
2021/03/08 07:37:45;;;;;;;4.20;1.77;;;;;;;25.04;26.96;96916.22;4942489;28;20030;-32
2021/03/08 07:40:21;;;;;;;2.60;1.85;;;;;;;25.05;26.67;96912.66;4971148;28;20037;-35
2021/03/08 07:42:46;;;;;;;2.33;1.85;;;;;;;25.06;26.79;96913.53;4982501;28;20018;-33
2021/03/08 07:45:12;;;;;;;2.80;1.70;;;;;;;25.05;26.93;96912.66;4994496;28;20049;-33
2021/03/08 07:47:37;;;;;;;5.93;2.08;;;;;;;25.07;26.94;96909.97;4965824;28;20026;-35
2021/03/08 07:50:26;;;;;;;5.38;2.85;;;;;;;25.09;26.34;96912.53;4977254;28;20236;-32
2021/03/08 07:52:54;;;;;;;5.07;2.05;;;;;;;25.11;26.73;96910.66;4974343;28;20030;-34
2021/03/08 07:55:19;;;;;;;3.28;1.77;;;;;;;25.11;26.81;96914.13;4966920;28;20048;-32
2021/03/08 07:57:44;;;;;;;7.88;1.65;;;;;;;25.12;26.82;96901.84;4950181;28;20250;-34
2021/03/08 08:00:10;;;;;;;5.47;1.70;;;;;;;25.13;27.02;96906.19;4974507;28;20023;-33
2021/03/08 08:02:36;;;;;;;3.42;1.63;;;;;;;25.15;27.02;96907.81;4956604;28;20537;-32
2021/03/08 08:05:02;;;;;;;3.90;2.10;;;;;;;25.17;27.07;96908.59;4974355;28;20092;-32
2021/03/08 08:07:30;;;;;;;2.35;1.50;;;;;;;25.18;26.91;96918.16;4968915;28;20376;-38
2021/03/08 08:09:55;;;;;;;12.10;6.00;;;;;;;25.19;25.20;96908.50;4983423;28;20572;-32
2021/03/08 08:12:30;;;;;;;6.70;5.30;;;;;;;25.20;23.61;96914.63;4939694;28;20029;-33
2021/03/08 08:14:56;;;;;;;5.57;4.78;;;;;;;25.16;23.27;96927.00;4973009;28;20038;-32
2021/03/08 08:17:21;;;;;;;4.97;4.40;;;;;;;25.14;23.21;96927.09;4969284;28;20593;-31
2021/03/08 08:19:47;;;;;;;8.25;4.57;;;;;;;25.12;23.07;96928.09;4973307;28;20037;-32
2021/03/08 08:22:33;;;;;;;7.35;4.50;;;;;;;25.07;22.93;96932.69;4986976;28;20510;-33
2021/03/08 08:24:58;;;;;;;5.50;4.60;;;;;;;25.03;22.80;96938.13;4974782;28;20042;-35
2021/03/08 08:27:24;;;;;;;7.40;4.78;;;;;;;24.99;22.80;96926.06;4955671;28;22714;-35
2021/03/08 08:29:49;;;;;;;9.57;4.72;;;;;;;24.96;22.47;96934.06;4952651;28;20245;-32
2021/03/08 08:32:15;;;;;;;7.50;4.50;;;;;;;24.94;22.81;96922.78;4949473;28;20396;-33
2021/03/08 08:34:41;;;;;;;8.18;4.90;;;;;;;24.91;22.92;96925.59;4967937;28;20030;-31
2021/03/08 08:37:17;;;;;;;7.55;5.30;;;;;;;24.88;22.83;96920.47;4971686;28;20696;-32
2021/03/08 08:40:03;;;;;;;8.38;4.88;;;;;;;24.85;22.93;96916.22;4972290;28;20030;-34
2021/03/08 08:42:29;;;;;;;7.60;4.50;;;;;;;24.82;22.97;96926.00;4955934;28;20042;-31
2021/03/08 08:44:58;;;;;;;7.07;4.90;;;;;;;24.80;22.71;96934.75;4968260;28;20034;-30
2021/03/08 08:47:34;;;;;;;8.43;5.25;;;;;;;24.78;22.65;96931.38;4987838;28;20038;-30
2021/03/08 08:50:09;;;;;;;8.52;5.93;;;;;;;24.76;22.56;96929.75;4987207;28;20026;-34
2021/03/08 08:52:56;;;;;;;7.43;5.25;;;;;;;24.75;22.59;96935.91;4982401;28;20085;-34
2021/03/08 08:55:33;;;;;;;7.10;4.78;;;;;;;24.72;22.73;96930.81;4973254;28;20023;-27
2021/03/08 08:58:18;;;;;;;8.40;4.70;;;;;;;24.70;22.56;96924.78;4988937;28;20034;-32
2021/03/08 09:01:03;;;;;;;8.98;5.03;;;;;;;24.69;22.63;96930.94;4975708;28;20411;-32
2021/03/08 09:03:59;;;;;;;6.22;4.60;;;;;;;24.65;22.52;96927.63;4958595;28;20030;-33
2021/03/08 09:06:49;;;;;;;5.90;4.50;;;;;;;24.65;22.74;96925.00;4972262;28;20039;-33
2021/03/08 09:09:21;;;;;;;7.35;4.45;;;;;;;24.63;22.65;96932.06;4968904;28;20026;-32
2021/03/08 09:11:47;;;;;;;;;;;;;;;24.61;22.64;96926.91;4970966;28;20109;-35
2021/03/08 09:14:37;;;;;;;7.60;5.03;;;;;;;24.60;22.18;96927.81;4969859;28;20605;-31
2021/03/08 09:17:08;;;;;;;6.72;4.28;;;;;;;24.59;22.35;96920.06;4954791;28;20033;-33
2021/03/08 09:19:34;;;;;;;6.88;4.70;;;;;;;24.58;22.44;96926.19;4963925;28;20018;-35
2021/03/08 09:22:28;;;;;;;10.70;4.75;;;;;;;24.58;22.21;96936.66;4981328;28;20037;-32
2021/03/08 09:24:54;;;;;;;7.65;5.25;;;;;;;24.57;22.07;96929.75;4974794;28;20379;-34
2021/03/08 09:27:21;;;;;;;30.52;5.60;;;;;;;24.55;22.58;96934.22;4976620;28;20338;-31
2021/03/08 09:29:46;;;;;;;11.52;8.25;;;;;;;24.46;19.85;96927.59;4961734;28;20113;-34
2021/03/08 09:32:11;;;;;;;13.63;9.68;;;;;;;24.22;17.28;96927.81;4976476;28;20533;-33
2021/03/08 09:34:37;;;;;;;22.65;9.55;;;;;;;23.89;17.55;96931.78;4985050;28;20034;-34
2021/03/08 09:37:02;;;;;;;20.00;8.68;;;;;;;23.62;17.59;96932.06;4955901;28;20023;-30
2021/03/08 09:39:28;;;;;;;9.27;7.72;;;;;;;23.40;18.05;96932.06;4971599;28;20035;-33
2021/03/08 09:41:53;;;;;;;15.85;8.70;;;;;;;23.19;18.50;96927.63;4956117;28;20033;-34
2021/03/08 09:44:18;;;;;;;18.20;8.18;;;;;;;23.04;18.69;96928.25;4942438;28;20832;-33
2021/03/08 09:46:54;;;;;;;14.60;6.53;;;;;;;22.93;19.57;96926.06;4984460;28;20141;-31
2021/03/08 09:49:19;;;;;;;7.07;4.70;;;;;;;22.91;20.54;96922.66;4977936;28;20030;-32
2021/03/08 09:51:45;;;;;;;12.45;4.68;;;;;;;22.94;21.27;96928.63;4977774;28;20026;-30
2021/03/08 09:54:10;;;;;;;7.32;4.07;;;;;;;23.02;21.85;96915.25;4980918;28;20018;-33
2021/03/08 09:56:39;;;;;;;7.15;4.03;;;;;;;23.12;22.15;96926.19;4978615;28;20038;-35
2021/03/08 09:59:11;;;;;;;7.53;3.40;;;;;;;23.24;22.30;96922.22;4980114;28;20030;-36
2021/03/08 10:01:36;;;;;;;;;;;;;;;23.37;22.71;96927.81;4984326;28;20034;-32
2021/03/08 10:04:02;;;;;;;5.80;3.38;;;;;;;23.49;22.82;96921.25;4997087;28;19917;-32
2021/03/08 10:06:31;;;;;;;5.50;3.17;;;;;;;23.60;22.99;96920.78;4978256;28;20069;-32
2021/03/08 10:08:57;;;;;;;6.65;3.08;;;;;;;23.71;22.94;96918.56;5004823;28;20887;-33
2021/03/08 10:11:29;;;;;;;7.55;2.90;;;;;;;23.82;23.05;96919.88;4985592;28;20041;-31
2021/03/08 10:13:55;;;;;;;4.82;2.80;;;;;;;23.92;23.32;96908.09;5003691;28;20277;-32
2021/03/08 10:16:25;;;;;;;4.75;2.90;;;;;;;24.04;23.23;96918.94;4993321;28;20680;-32
2021/03/08 10:18:51;;;;;;;11.18;2.80;;;;;;;24.12;23.30;96903.78;4978324;28;20117;-33
2021/03/08 10:21:16;;;;;;;8.25;3.20;;;;;;;24.19;23.19;96902.59;4978635;28;20105;-32
2021/03/08 10:23:41;;;;;;;4.22;2.45;;;;;;;24.26;23.42;96906.63;4980193;28;20084;-32
2021/03/08 10:26:13;;;;;;;16.98;3.05;;;;;;;24.34;23.53;96905.44;4979680;28;20083;-32
2021/03/08 10:28:43;;;;;;;15.80;3.08;;;;;;;24.37;23.45;96900.06;4975601;28;20031;-31
2021/03/08 10:31:19;;;;;;;10.60;4.13;;;;;;;24.42;23.38;96908.56;4957237;28;20030;-31
2021/03/08 10:33:45;;;;;;;12.38;5.68;;;;;;;24.46;23.53;96910.13;4975394;28;20113;-31
2021/03/08 10:36:11;;;;;;;10.43;5.20;;;;;;;24.49;23.29;96912.59;4959483;28;20129;-33
2021/03/08 10:38:36;;;;;;;10.18;3.20;;;;;;;24.51;23.64;96905.53;4968762;28;20018;-34
2021/03/08 10:41:03;;;;;;;34.58;5.80;;;;;;;24.54;23.41;96912.38;4966334;28;20550;-31
2021/03/08 10:43:29;;;;;;;15.57;5.20;;;;;;;24.58;23.11;96913.09;4983703;28;20039;-32
2021/03/08 10:45:55;;;;;;;26.33;9.10;;;;;;;24.60;22.65;96903.41;4988765;28;20040;-32
2021/03/08 10:48:20;;;;;;;28.77;9.10;;;;;;;24.62;22.93;96907.66;4984808;28;20100;-32
2021/03/08 10:50:50;;;;;;;24.92;6.30;;;;;;;24.63;22.69;96904.09;4984051;28;20681;-32
2021/03/08 10:53:17;;;;;;;9.98;4.85;;;;;;;24.66;22.34;96897.88;4980850;28;20029;-32
2021/03/08 10:55:43;;;;;;;9.77;4.85;;;;;;;24.66;22.05;96893.47;4986692;28;20030;-34
2021/03/08 10:58:08;;;;;;;15.07;5.50;;;;;;;24.66;21.52;96890.00;4985292;28;20634;-31
2021/03/08 11:00:34;;;;;;;16.48;6.20;;;;;;;24.64;19.71;96902.34;4988928;28;20232;-32
2021/03/08 11:03:00;;;;;;;9.45;4.93;;;;;;;24.61;19.59;96903.34;4972824;28;20030;-30
2021/03/08 11:05:26;;;;;;;7.38;3.15;;;;;;;24.60;20.74;96898.16;4983366;28;20095;-32
2021/03/08 11:07:52;;;;;;;9.23;2.83;;;;;;;24.60;21.31;96904.22;5000298;28;20624;-34
2021/03/08 11:10:34;;;;;;;9.38;4.22;;;;;;;24.61;21.19;96903.34;5000531;28;20525;-31
2021/03/08 11:13:03;;;;;;;;;;;;;;;24.65;21.87;96904.03;4992818;28;20029;-33
2021/03/08 11:15:29;;;;;;;7.68;2.83;;;;;;;24.68;21.97;96903.91;5003460;28;19964;-34
2021/03/08 11:17:54;;;;;;;3.88;2.35;;;;;;;24.71;22.49;96901.13;4983079;28;20414;-32
2021/03/08 11:20:22;;;;;;;9.38;2.90;;;;;;;24.76;22.50;96900.91;4982783;28;20031;-35
2021/03/08 11:23:08;;;;;;;5.68;3.03;;;;;;;24.79;22.46;96900.78;4982139;28;20056;-32
2021/03/08 11:25:43;;;;;;;8.38;3.40;;;;;;;24.81;22.24;96898.91;4987695;28;20156;-34
2021/03/08 11:28:13;;;;;;;5.53;3.30;;;;;;;24.84;21.97;96903.19;4985276;28;20026;-32
2021/03/08 11:30:39;;;;;;;6.53;3.15;;;;;;;24.83;21.88;96906.72;4970390;28;20193;-32
2021/03/08 11:33:07;;;;;;;7.90;3.17;;;;;;;24.85;21.54;96911.00;4979595;28;20033;-32
2021/03/08 11:35:33;;;;;;;4.05;3.15;;;;;;;24.85;21.43;96905.75;4956414;28;20034;-30
2021/03/08 11:38:02;;;;;;;16.88;2.75;;;;;;;24.86;21.95;96904.00;4979339;28;20057;-32
2021/03/08 11:40:28;;;;;;;7.55;2.40;;;;;;;24.88;22.25;96902.13;4957003;28;20093;-32
2021/03/08 11:42:53;;;;;;;5.68;3.08;;;;;;;24.88;21.64;96899.50;4976695;28;20026;-33
2021/03/08 11:45:19;;;;;;;6.13;3.25;;;;;;;24.90;21.52;96897.69;4974432;28;20114;-32